Time;durP1;ratioP1;P1;durP2;ratioP2;P2;SDS_P1;SDS_P2;PMS_P1;PMS_P2;Temp;Humidity;BMP_temperature;BMP_pressure;BME280_temperature;BME280_humidity;BME280_pressure;Samples;Min_cycle;Max_cycle;Signal;HPM_P1;HPM_P2
2023/12/26 00:01:15;;;;;;;20.33;4.23;;;7.10;1.00;;;;;;5056365;28;20777;-78
2023/12/26 00:03:43;;;;;;;13.17;3.70;;;7.00;1.00;;;;;;5058325;28;20320;-78
2023/12/26 00:06:12;;;;;;;15.73;3.20;;;7.00;1.00;;;;;;5066270;28;20224;-77
2023/12/26 00:08:42;;;;;;;12.13;3.90;;;6.90;1.00;;;;;;5061326;28;20272;-75
2023/12/26 00:11:11;;;;;;;15.73;4.27;;;7.00;1.00;;;;;;5067488;28;20277;-78
2023/12/26 00:13:40;;;;;;;13.27;3.60;;;7.00;1.00;;;;;;5057381;28;20243;-78
2023/12/26 00:16:08;;;;;;;13.33;3.50;;;6.90;1.00;;;;;;5066095;28;20288;-78
2023/12/26 00:18:37;;;;;;;16.50;3.90;;;7.00;1.00;;;;;;5066011;28;20231;-78
2023/12/26 00:21:06;;;;;;;13.80;3.73;;;7.00;1.00;;;;;;5066269;28;20310;-78
2023/12/26 00:23:35;;;;;;;17.87;4.10;;;7.00;1.00;;;;;;5059189;28;20232;-78
2023/12/26 00:26:05;;;;;;;13.10;3.87;;;7.00;1.00;;;;;;5062845;28;20226;-78
2023/12/26 00:28:34;;;;;;;12.93;4.00;;;7.00;1.00;;;;;;5065529;28;21001;-78
2023/12/26 00:31:02;;;;;;;13.20;3.65;;;7.00;1.00;;;;;;5055685;28;20826;-77
2023/12/26 00:33:31;;;;;;;16.47;3.43;;;7.00;1.00;;;;;;5061523;28;20244;-78
2023/12/26 00:36:00;;;;;;;14.20;3.70;;;7.00;1.00;;;;;;5060146;28;20327;-78
2023/12/26 00:38:29;;;;;;;13.03;3.80;;;6.90;1.00;;;;;;5061638;28;20895;-78
2023/12/26 00:40:58;;;;;;;13.70;3.40;;;6.90;1.00;;;;;;5061424;28;20289;-77
2023/12/26 00:43:28;;;;;;;12.20;3.33;;;7.00;1.00;;;;;;5058670;28;20238;-77
2023/12/26 00:45:56;;;;;;;20.10;4.10;;;7.00;1.00;;;;;;5059049;28;20689;-77
2023/12/26 00:48:25;;;;;;;17.53;3.60;;;7.10;1.00;;;;;;5074556;28;20259;-78
2023/12/26 00:50:54;;;;;;;19.60;3.50;;;7.10;1.00;;;;;;5061684;28;20228;-77
2023/12/26 00:53:24;;;;;;;13.35;3.58;;;7.10;1.00;;;;;;5058673;28;20223;-77
2023/12/26 00:55:53;;;;;;;12.47;3.60;;;7.10;1.00;;;;;;5055175;28;20231;-79
2023/12/26 00:58:22;;;;;;;13.37;4.83;;;7.00;1.00;;;;;;5064549;28;20284;-77
2023/12/26 01:00:52;;;;;;;14.40;3.77;;;7.00;1.00;;;;;;5062149;28;20268;-77
2023/12/26 01:03:22;;;;;;;14.70;3.43;;;7.00;1.00;;;;;;5067063;28;20220;-77
2023/12/26 01:05:51;;;;;;;12.43;3.37;;;7.00;1.00;;;;;;5066227;28;20227;-77
2023/12/26 01:08:20;;;;;;;16.77;3.50;;;7.00;1.00;;;;;;5064250;28;20273;-77
2023/12/26 01:10:50;;;;;;;13.17;3.83;;;6.90;1.00;;;;;;5070326;28;20284;-79
2023/12/26 01:13:19;;;;;;;12.00;3.83;;;7.00;1.00;;;;;;5080484;28;20243;-77
2023/12/26 01:15:48;;;;;;;9.63;3.40;;;6.90;1.00;;;;;;5059836;28;20269;-78
2023/12/26 01:18:18;;;;;;;14.82;3.60;;;6.90;1.00;;;;;;5066812;28;20239;-78
2023/12/26 01:20:48;;;;;;;15.37;3.70;;;7.00;1.00;;;;;;5058588;28;20223;-78
2023/12/26 01:23:17;;;;;;;14.07;3.70;;;6.90;1.00;;;;;;5068033;28;20252;-77
2023/12/26 01:25:46;;;;;;;13.67;3.93;;;6.80;1.00;;;;;;5066938;28;20223;-77
2023/12/26 01:28:15;;;;;;;15.87;3.27;;;6.90;1.00;;;;;;5064207;28;20236;-78
2023/12/26 01:30:43;;;;;;;15.70;3.10;;;6.90;1.00;;;;;;5065133;28;20299;-78
2023/12/26 01:33:12;;;;;;;12.67;3.37;;;6.90;1.00;;;;;;5066146;28;20239;-78
2023/12/26 01:35:43;;;;;;;12.73;3.73;;;7.00;1.00;;;;;;5050128;28;20229;-78
2023/12/26 01:38:11;;;;;;;12.73;3.27;;;7.00;1.00;;;;;;5053226;28;20962;-78
2023/12/26 01:40:40;;;;;;;11.60;2.80;;;7.00;1.00;;;;;;5080635;28;20234;-77
2023/12/26 01:43:10;;;;;;;13.90;3.17;;;7.00;1.00;;;;;;5063408;28;20299;-78
2023/12/26 01:45:38;;;;;;;12.60;3.07;;;7.00;1.00;;;;;;5063256;28;20234;-78
2023/12/26 01:48:09;;;;;;;11.83;3.00;;;7.10;1.00;;;;;;5057582;28;20262;-78
2023/12/26 01:50:38;;;;;;;14.87;3.27;;;7.10;1.00;;;;;;5062612;28;20322;-79
2023/12/26 01:53:09;;;;;;;13.10;3.50;;;7.20;1.00;;;;;;5066457;28;20226;-78
2023/12/26 01:55:37;;;;;;;13.95;3.83;;;7.20;1.00;;;;;;5064521;28;20232;-81
2023/12/26 01:58:06;;;;;;;15.85;3.33;;;7.20;1.00;;;;;;5066515;28;20220;-78
2023/12/26 02:00:35;;;;;;;14.80;3.50;;;7.20;1.00;;;;;;5064873;28;20223;-77
2023/12/26 02:03:04;;;;;;;17.30;3.20;;;7.30;1.00;;;;;;5084478;28;20310;-77
2023/12/26 02:05:33;;;;;;;12.70;3.60;;;7.20;1.00;;;;;;5065851;28;20275;-78
2023/12/26 02:08:02;;;;;;;17.07;3.47;;;7.30;1.00;;;;;;5067591;28;20789;-78
2023/12/26 02:10:46;;;;;;;12.77;3.30;;;7.30;1.00;;;;;;5069890;28;20258;-78
2023/12/26 02:13:14;;;;;;;10.63;3.73;;;7.30;1.00;;;;;;5079627;28;20235;-79
2023/12/26 02:15:43;;;;;;;15.73;3.67;;;7.20;1.00;;;;;;5067121;28;20303;-79
2023/12/26 02:18:13;;;;;;;15.07;3.30;;;7.30;1.00;;;;;;5066642;28;20232;-78
2023/12/26 02:20:41;;;;;;;14.27;3.53;;;7.30;1.00;;;;;;5062679;28;20227;-79
2023/12/26 02:23:10;;;;;;;11.77;3.50;;;7.40;1.00;;;;;;5063143;28;20219;-78
2023/12/26 02:25:40;;;;;;;13.80;3.60;;;7.40;1.00;;;;;;5064198;28;20229;-78
2023/12/26 02:28:09;;;;;;;14.20;3.92;;;7.40;1.00;;;;;;5044629;28;20227;-78
2023/12/26 02:30:38;;;;;;;10.90;3.40;;;7.40;1.00;;;;;;5045643;28;20224;-78
2023/12/26 02:33:07;;;;;;;15.90;3.80;;;7.40;1.00;;;;;;5051327;28;20225;-79
2023/12/26 02:35:36;;;;;;;11.83;3.70;;;7.50;1.00;;;;;;5048103;28;20252;-77
2023/12/26 02:38:05;;;;;;;13.57;3.50;;;7.50;1.00;;;;;;5048851;28;20741;-78
2023/12/26 02:40:33;;;;;;;10.13;3.87;;;7.50;1.00;;;;;;5052358;28;20232;-79
2023/12/26 02:43:03;;;;;;;9.57;3.30;;;7.50;1.00;;;;;;5046279;28;20242;-78
2023/12/26 02:45:32;;;;;;;12.43;4.00;;;7.50;1.00;;;;;;5047030;28;20256;-79
2023/12/26 02:48:00;;;;;;;13.60;4.17;;;7.50;1.00;;;;;;5041432;28;20244;-78
2023/12/26 02:50:31;;;;;;;15.67;4.23;;;7.50;1.00;;;;;;5043162;28;20221;-77
2023/12/26 02:52:59;;;;;;;9.20;3.70;;;7.50;1.00;;;;;;5050560;28;20235;-78
2023/12/26 02:55:28;;;;;;;12.70;4.07;;;7.40;1.00;;;;;;5048314;28;20234;-79
2023/12/26 02:57:57;;;;;;;15.17;4.30;;;7.50;1.00;;;;;;5047531;28;20315;-78
2023/12/26 03:00:27;;;;;;;13.50;4.20;;;7.50;1.00;;;;;;5045547;28;20236;-79
2023/12/26 03:02:56;;;;;;;14.90;4.67;;;7.50;1.00;;;;;;5051598;28;20224;-78
2023/12/26 03:05:25;;;;;;;12.97;4.13;;;7.50;1.00;;;;;;5096503;28;20826;-79
2023/12/26 03:07:54;;;;;;;14.60;3.80;;;7.50;1.00;;;;;;5063362;28;20221;-79
2023/12/26 03:10:22;;;;;;;12.98;4.60;;;7.50;1.00;;;;;;5066009;28;20232;-78
2023/12/26 03:12:51;;;;;;;13.70;3.72;;;7.50;1.00;;;;;;5066065;28;20303;-78
2023/12/26 03:15:19;;;;;;;16.83;3.97;;;7.50;1.00;;;;;;5065692;28;20254;-79
2023/12/26 03:17:53;;;;;;;12.40;4.38;;;7.60;1.00;;;;;;5067070;28;20391;-78
2023/12/26 03:20:22;;;;;;;13.68;4.10;;;7.60;1.00;;;;;;5061422;28;20220;-77
2023/12/26 03:22:50;;;;;;;10.63;3.83;;;7.60;1.00;;;;;;5065378;28;20265;-78
2023/12/26 03:25:19;;;;;;;8.50;4.10;;;7.60;1.00;;;;;;5067788;28;20220;-79
2023/12/26 03:27:47;;;;;;;13.17;4.40;;;7.60;1.00;;;;;;5058154;28;20220;-77
2023/12/26 03:30:18;;;;;;;12.57;4.82;;;7.60;1.00;;;;;;5065269;28;20319;-77
2023/12/26 03:32:46;;;;;;;10.73;3.90;;;7.70;1.00;;;;;;5060297;28;20230;-78
2023/12/26 03:35:17;;;;;;;12.98;3.78;;;7.60;1.00;;;;;;5064502;28;20303;-78
2023/12/26 03:37:47;;;;;;;13.68;4.28;;;7.70;1.00;;;;;;5061914;28;20223;-78
2023/12/26 03:40:16;;;;;;;11.88;4.22;;;7.70;1.00;;;;;;5054185;28;20998;-77
2023/12/26 03:42:45;;;;;;;9.77;3.60;;;7.70;1.00;;;;;;5062898;28;20654;-77
2023/12/26 03:45:14;;;;;;;10.77;3.92;;;7.70;1.00;;;;;;5059797;28;20230;-77
2023/12/26 03:47:43;;;;;;;13.87;4.40;;;7.70;1.00;;;;;;5065983;28;20220;-77
2023/12/26 03:50:12;;;;;;;12.50;4.53;;;7.70;1.00;;;;;;5056273;28;20225;-77
2023/12/26 03:52:42;;;;;;;15.23;5.07;;;7.70;1.00;;;;;;5060437;28;20224;-77
2023/12/26 03:55:12;;;;;;;14.45;5.03;;;7.60;1.00;;;;;;5063497;28;20312;-77
2023/12/26 03:57:42;;;;;;;11.27;5.03;;;7.70;1.00;;;;;;5059484;28;20326;-77
2023/12/26 04:00:11;;;;;;;11.75;4.80;;;7.70;1.00;;;;;;5060406;28;20236;-78
2023/12/26 04:02:41;;;;;;;12.57;4.63;;;7.70;1.00;;;;;;5063354;28;20285;-78
2023/12/26 04:05:12;;;;;;;13.65;4.35;;;7.70;1.00;;;;;;5063189;28;20235;-77
2023/12/26 04:07:43;;;;;;;11.35;3.90;;;7.70;1.00;;;;;;5064562;28;20247;-77
2023/12/26 04:10:15;;;;;;;11.85;4.45;;;7.70;1.00;;;;;;5047205;28;20240;-78
2023/12/26 04:12:44;;;;;;;11.40;3.90;;;7.60;1.00;;;;;;5067462;28;20251;-78
2023/12/26 04:15:13;;;;;;;12.47;4.10;;;7.70;1.00;;;;;;5061828;28;20292;-77
2023/12/26 04:17:42;;;;;;;13.00;4.03;;;7.70;1.00;;;;;;5062214;28;20227;-78
2023/12/26 04:20:11;;;;;;;11.27;3.43;;;7.70;1.00;;;;;;5068616;28;20722;-77
2023/12/26 04:22:40;;;;;;;10.73;3.63;;;7.70;1.00;;;;;;5061655;28;20231;-78
2023/12/26 04:25:10;;;;;;;10.90;3.67;;;7.70;1.00;;;;;;5062268;28;20230;-77
2023/12/26 04:27:38;;;;;;;11.80;3.95;;;7.70;1.00;;;;;;5064263;28;20342;-78
2023/12/26 04:30:08;;;;;;;10.73;4.32;;;7.70;1.00;;;;;;5063961;28;20231;-77
2023/12/26 04:32:36;;;;;;;8.03;3.57;;;7.70;1.00;;;;;;5061498;28;20224;-78
2023/12/26 04:35:06;;;;;;;9.88;3.17;;;7.80;1.00;;;;;;5057873;28;20258;-77
2023/12/26 04:37:34;;;;;;;9.37;3.70;;;7.80;1.00;;;;;;5063064;28;20232;-78
2023/12/26 04:40:03;;;;;;;9.20;3.42;;;7.90;1.00;;;;;;5067347;28;20227;-77
2023/12/26 04:42:33;;;;;;;13.23;3.25;;;7.80;1.00;;;;;;5059554;28;20770;-78
2023/12/26 04:45:03;;;;;;;11.03;3.60;;;7.80;1.00;;;;;;5060482;28;20316;-80
2023/12/26 04:47:30;;;;;;;11.52;3.38;;;7.80;1.00;;;;;;5060457;28;20234;-79
2023/12/26 04:50:00;;;;;;;10.43;3.07;;;7.80;1.00;;;;;;5059797;28;20216;-78
2023/12/26 04:52:29;;;;;;;12.98;3.38;;;7.80;1.00;;;;;;5076776;28;20224;-79
2023/12/26 04:54:58;;;;;;;14.33;3.33;;;7.80;1.00;;;;;;5063934;28;20232;-79
2023/12/26 04:57:27;;;;;;;9.00;2.85;;;7.60;1.00;;;;;;5062720;28;20216;-78
2023/12/26 04:59:57;;;;;;;9.13;3.42;;;7.60;1.00;;;;;;5064853;28;20220;-79
2023/12/26 05:02:26;;;;;;;13.53;3.67;;;7.60;1.00;;;;;;5063462;28;20263;-78
2023/12/26 05:04:55;;;;;;;10.15;3.70;;;7.70;1.00;;;;;;5055672;28;20608;-77
2023/12/26 05:07:24;;;;;;;11.60;3.20;;;7.70;1.00;;;;;;5063760;28;20232;-78
2023/12/26 05:09:52;;;;;;;8.63;3.80;;;7.70;1.00;;;;;;5064481;28;20224;-79
2023/12/26 05:12:21;;;;;;;10.77;3.60;;;7.70;1.00;;;;;;5059948;28;20221;-78
2023/12/26 05:14:49;;;;;;;9.70;3.80;;;7.70;1.00;;;;;;5055253;28;20251;-78
2023/12/26 05:17:19;;;;;;;9.25;3.72;;;7.70;1.00;;;;;;5062601;28;20231;-77
2023/12/26 05:19:48;;;;;;;13.00;3.85;;;7.60;1.00;;;;;;5067177;28;20278;-79
2023/12/26 05:22:16;;;;;;;11.77;3.92;;;7.60;1.00;;;;;;5051132;28;20708;-79
2023/12/26 05:24:45;;;;;;;8.47;3.40;;;7.60;1.00;;;;;;5094334;28;20239;-78
2023/12/26 05:27:21;;;;;;;7.65;3.80;;;7.70;1.00;;;;;;5059487;28;20236;-78
2023/12/26 05:29:50;;;;;;;5.43;3.37;;;7.60;1.00;;;;;;5091724;28;20254;-78
2023/12/26 05:32:20;;;;;;;9.68;3.83;;;7.60;1.00;;;;;;5064657;28;20334;-77
2023/12/26 05:34:49;;;;;;;10.03;3.93;;;7.60;1.00;;;;;;5062884;28;20244;-78
2023/12/26 05:37:17;;;;;;;9.57;4.20;;;7.70;1.00;;;;;;5061434;28;20241;-78
2023/12/26 05:39:46;;;;;;;8.82;4.43;;;7.70;1.00;;;;;;5061326;28;20244;-78
2023/12/26 05:42:16;;;;;;;8.63;4.40;;;7.70;1.00;;;;;;5060847;28;20754;-78
2023/12/26 05:44:44;;;;;;;14.88;4.25;;;7.70;1.00;;;;;;5060968;28;20231;-78
2023/12/26 05:47:13;;;;;;;11.37;4.90;;;7.70;1.00;;;;;;5063013;28;20231;-78
2023/12/26 05:49:43;;;;;;;9.82;4.65;;;7.70;1.00;;;;;;5073219;28;20878;-78
2023/12/26 05:52:12;;;;;;;11.82;5.00;;;7.70;1.00;;;;;;5062046;28;20223;-78
2023/12/26 05:54:41;;;;;;;9.48;5.15;;;7.70;1.00;;;;;;5063132;28;20235;-78
2023/12/26 05:57:09;;;;;;;10.17;4.90;;;7.80;1.00;;;;;;5063971;28;20220;-78
2023/12/26 05:59:38;;;;;;;7.90;5.13;;;7.80;1.00;;;;;;5063707;28;20259;-78
2023/12/26 06:02:07;;;;;;;9.15;4.97;;;7.80;1.00;;;;;;5060997;28;20227;-78
2023/12/26 06:04:38;;;;;;;8.45;5.07;;;7.80;1.00;;;;;;5052025;28;20600;-78
2023/12/26 06:07:07;;;;;;;9.27;5.25;;;7.90;1.00;;;;;;5060425;28;20221;-77
2023/12/26 06:09:36;;;;;;;9.25;5.55;;;7.90;1.00;;;;;;5054094;28;20235;-78
2023/12/26 06:12:05;;;;;;;8.63;5.13;;;7.90;1.00;;;;;;5061118;28;20251;-75
2023/12/26 06:14:34;;;;;;;10.88;5.30;;;7.90;1.00;;;;;;5067815;28;20301;-77
2023/12/26 06:17:03;;;;;;;10.20;5.50;;;7.90;1.00;;;;;;5050714;28;20706;-78
2023/12/26 06:19:31;;;;;;;11.75;5.80;;;8.00;1.00;;;;;;5069860;28;20745;-78
2023/12/26 06:22:00;;;;;;;8.55;5.18;;;8.00;1.00;;;;;;5063684;28;20270;-78
2023/12/26 06:24:31;;;;;;;11.02;5.88;;;8.00;1.00;;;;;;5062285;28;20228;-79
2023/12/26 06:26:59;;;;;;;9.63;6.50;;;8.00;1.00;;;;;;5063299;28;20813;-79
2023/12/26 06:29:28;;;;;;;9.52;5.47;;;8.10;1.00;;;;;;5061316;28;20221;-79
2023/12/26 06:31:56;;;;;;;7.65;5.55;;;8.00;1.00;;;;;;5069700;28;20314;-80
2023/12/26 06:34:25;;;;;;;16.85;6.15;;;8.00;1.00;;;;;;5062807;28;20683;-79
2023/12/26 06:36:54;;;;;;;8.23;5.47;;;8.00;1.00;;;;;;5053007;28;20676;-79
2023/12/26 06:39:23;;;;;;;6.93;5.07;;;8.00;1.00;;;;;;5062392;28;20296;-77
2023/12/26 06:41:54;;;;;;;7.25;5.38;;;8.00;1.00;;;;;;5064994;28;20310;-79
2023/12/26 06:44:22;;;;;;;7.50;5.15;;;8.10;1.00;;;;;;5065473;28;20231;-79
2023/12/26 06:46:51;;;;;;;6.70;5.47;;;8.10;1.00;;;;;;5067130;28;20294;-80
2023/12/26 06:49:20;;;;;;;6.28;5.57;;;8.10;1.00;;;;;;5068206;28;20282;-78
2023/12/26 06:51:50;;;;;;;11.30;5.50;;;8.20;1.00;;;;;;5067738;28;20231;-80
2023/12/26 06:54:19;;;;;;;10.10;5.90;;;8.20;1.00;;;;;;5058409;28;20703;-79
2023/12/26 06:56:48;;;;;;;12.93;6.37;;;8.20;1.00;;;;;;5062965;28;20226;-79
2023/12/26 06:59:18;;;;;;;7.83;5.83;;;8.20;1.00;;;;;;5064134;28;20216;-79
2023/12/26 07:01:47;;;;;;;7.90;5.82;;;8.30;1.00;;;;;;5070174;28;20310;-78
2023/12/26 07:04:16;;;;;;;10.52;6.25;;;8.30;1.00;;;;;;5067783;28;20312;-78
2023/12/26 07:06:45;;;;;;;7.78;6.00;;;8.30;1.00;;;;;;5067644;28;20231;-76
2023/12/26 07:09:14;;;;;;;6.93;6.03;;;8.40;1.00;;;;;;5090466;28;20212;-78
2023/12/26 07:11:43;;;;;;;7.38;5.53;;;8.40;1.00;;;;;;5089379;28;20238;-78
2023/12/26 07:14:11;;;;;;;10.50;6.40;;;8.40;1.00;;;;;;5057967;28;20258;-78
2023/12/26 07:16:41;;;;;;;10.02;6.13;;;8.40;1.00;;;;;;5062924;28;20302;-78
2023/12/26 07:19:10;;;;;;;8.50;6.10;;;8.40;1.00;;;;;;5062543;28;20222;-78
2023/12/26 07:21:38;;;;;;;8.48;6.90;;;8.50;1.00;;;;;;5057819;28;20232;-79
2023/12/26 07:24:07;;;;;;;9.73;6.55;;;8.50;1.00;;;;;;5063502;28;20220;-79
2023/12/26 07:26:36;;;;;;;10.48;6.55;;;8.40;1.00;;;;;;5062024;28;20291;-78
2023/12/26 07:29:05;;;;;;;9.90;6.70;;;8.40;1.00;;;;;;5062693;28;20233;-80
2023/12/26 07:31:33;;;;;;;7.70;6.65;;;8.40;1.00;;;;;;5065054;28;20228;-79
2023/12/26 07:34:08;;;;;;;9.55;6.72;;;8.50;1.30;;;;;;5078283;28;20607;-80
2023/12/26 07:36:37;;;;;;;12.18;7.05;;;8.50;1.50;;;;;;5053057;28;20260;-80
2023/12/26 07:39:06;;;;;;;8.70;6.75;;;8.50;1.00;;;;;;5078348;28;20224;-79
2023/12/26 07:41:35;;;;;;;9.73;7.30;;;8.50;1.00;;;;;;5067267;28;20303;-80
2023/12/26 07:44:04;;;;;;;8.95;7.25;;;8.50;2.30;;;;;;5063542;28;20216;-80
2023/12/26 07:46:32;;;;;;;9.50;6.82;;;8.60;3.70;;;;;;5063975;28;20225;-80
2023/12/26 07:49:01;;;;;;;9.70;6.65;;;8.60;3.40;;;;;;5064770;28;20220;-80
2023/12/26 07:51:31;;;;;;;9.00;6.72;;;8.60;3.80;;;;;;5060098;28;20242;-80
2023/12/26 07:54:00;;;;;;;9.35;7.57;;;8.70;3.00;;;;;;5066172;28;20232;-80
2023/12/26 07:56:29;;;;;;;12.30;7.30;;;8.70;3.00;;;;;;5066466;28;20224;-80
2023/12/26 07:58:58;;;;;;;10.27;7.38;;;8.60;3.50;;;;;;5065686;28;20217;-80
2023/12/26 08:01:26;;;;;;;9.13;7.28;;;8.50;2.50;;;;;;5060071;28;20723;-80
2023/12/26 08:03:55;;;;;;;9.75;6.57;;;8.50;3.80;;;;;;5057117;28;20226;-80
2023/12/26 08:06:24;;;;;;;7.47;6.47;;;8.60;5.80;;;;;;5061667;28;20244;-80
2023/12/26 08:08:54;;;;;;;7.80;6.30;;;8.60;5.80;;;;;;5067530;28;20250;-80
2023/12/26 08:11:24;;;;;;;10.73;7.20;;;8.70;6.20;;;;;;5060462;28;20239;-80
2023/12/26 08:13:53;;;;;;;8.65;5.85;;;8.70;6.40;;;;;;5060318;28;20361;-80
2023/12/26 08:16:21;;;;;;;9.20;6.20;;;8.80;6.60;;;;;;5061711;28;20224;-80
2023/12/26 08:18:54;;;;;;;8.07;5.82;;;8.70;7.40;;;;;;5064938;28;20317;-80
2023/12/26 08:21:22;;;;;;;6.10;5.47;;;8.80;9.30;;;;;;5065350;28;20256;-79
2023/12/26 08:23:51;;;;;;;5.82;5.05;;;8.80;10.10;;;;;;5065146;28;20216;-80
2023/12/26 08:26:22;;;;;;;5.18;4.68;;;8.80;13.40;;;;;;5064991;28;20239;-79
2023/12/26 08:28:50;;;;;;;4.93;4.10;;;8.90;17.80;;;;;;5075957;28;20247;-79
2023/12/26 08:31:19;;;;;;;7.20;3.83;;;8.90;19.70;;;;;;5063761;28;20684;-79
2023/12/26 08:33:47;;;;;;;4.88;3.33;;;9.00;20.80;;;;;;5066095;28;20695;-80
2023/12/26 08:36:16;;;;;;;3.63;2.95;;;9.10;22.70;;;;;;5063229;28;20220;-80
2023/12/26 08:38:45;;;;;;;3.55;2.88;;;9.10;22.90;;;;;;5066501;28;20235;-80
2023/12/26 08:41:13;;;;;;;2.92;2.58;;;9.20;23.50;;;;;;5065232;28;20228;-80
2023/12/26 08:43:44;;;;;;;3.17;2.42;;;9.30;24.00;;;;;;5064793;28;20216;-80
2023/12/26 08:46:13;;;;;;;2.45;2.25;;;9.30;23.40;;;;;;5061487;28;20224;-80
2023/12/26 08:48:41;;;;;;;3.95;2.42;;;9.40;24.10;;;;;;5071040;28;20311;-79
2023/12/26 08:51:10;;;;;;;3.42;2.42;;;9.40;22.90;;;;;;5064410;28;20316;-80
2023/12/26 08:53:38;;;;;;;2.97;2.30;;;9.50;24.00;;;;;;5068383;28;20224;-80
2023/12/26 08:56:07;;;;;;;3.67;2.60;;;9.60;23.80;;;;;;5067454;28;20221;-80
2023/12/26 08:58:36;;;;;;;2.22;2.03;;;9.60;23.80;;;;;;5062169;28;20771;-80
2023/12/26 09:01:09;;;;;;;3.10;2.08;;;9.60;23.70;;;;;;5065925;28;20285;-80
2023/12/26 09:03:38;;;;;;;2.63;2.00;;;9.70;23.80;;;;;;5065146;28;20251;-80
2023/12/26 09:06:10;;;;;;;2.38;2.05;;;9.70;22.70;;;;;;5064520;28;20227;-78
2023/12/26 09:08:40;;;;;;;2.08;1.90;;;9.70;21.80;;;;;;5064068;28;20729;-81
2023/12/26 09:11:09;;;;;;;2.92;2.55;;;9.80;18.60;;;;;;5070575;28;20224;-80
2023/12/26 09:13:37;;;;;;;2.97;2.30;;;9.80;18.30;;;;;;5063418;28;20379;-80
2023/12/26 09:16:08;;;;;;;2.60;2.17;;;9.80;15.40;;;;;;5059355;28;20278;-79
2023/12/26 09:18:39;;;;;;;3.03;2.50;;;9.80;13.80;;;;;;5053861;28;20232;-80
2023/12/26 09:21:07;;;;;;;3.40;2.38;;;9.90;13.50;;;;;;5064701;28;20219;-81
2023/12/26 09:23:36;;;;;;;2.60;2.20;;;9.90;11.50;;;;;;5063866;28;20337;-81
2023/12/26 09:26:05;;;;;;;3.72;2.40;;;10.00;10.10;;;;;;5062679;28;20631;-79
2023/12/26 09:28:34;;;;;;;4.05;2.83;;;10.00;6.40;;;;;;5065034;28;21393;-79
2023/12/26 09:31:02;;;;;;;4.07;2.97;;;10.10;8.50;;;;;;5059325;28;20235;-79
2023/12/26 09:33:32;;;;;;;3.63;2.78;;;10.10;11.40;;;;;;5060937;28;20220;-79
2023/12/26 09:36:01;;;;;;;4.03;2.60;;;10.10;3.00;;;;;;5064476;28;20345;-80
2023/12/26 09:38:29;;;;;;;3.45;2.92;;;10.10;3.50;;;;;;5076882;28;20277;-80
2023/12/26 09:40:58;;;;;;;3.22;2.55;;;10.20;3.90;;;;;;5074769;28;20232;-80
2023/12/26 09:43:26;;;;;;;4.13;2.60;;;10.20;2.30;;;;;;5063315;28;20224;-77
2023/12/26 09:45:56;;;;;;;2.53;2.15;;;10.20;1.00;;;;;;5070015;28;20671;-79
2023/12/26 09:48:25;;;;;;;4.82;2.53;;;10.20;1.00;;;;;;5064435;28;20250;-81
2023/12/26 09:50:56;;;;;;;2.85;2.55;;;10.30;1.00;;;;;;5063812;28;20748;-80
2023/12/26 09:53:27;;;;;;;4.78;2.40;;;10.30;1.00;;;;;;5063472;28;20293;-80
2023/12/26 09:55:55;;;;;;;3.28;2.70;;;10.30;1.00;;;;;;5080621;28;20220;-80
2023/12/26 09:58:24;;;;;;;2.45;2.20;;;10.30;1.00;;;;;;5080664;28;20248;-80
2023/12/26 10:00:54;;;;;;;2.97;2.47;;;10.30;1.00;;;;;;5082632;28;20220;-81
2023/12/26 10:03:24;;;;;;;3.45;2.38;;;10.30;1.00;;;;;;5057361;28;20236;-80
2023/12/26 10:05:57;;;;;;;2.80;2.53;;;10.30;1.00;;;;;;5062864;28;21292;-81
2023/12/26 10:08:26;;;;;;;3.63;2.97;;;10.40;1.00;;;;;;5059210;28;20220;-80
2023/12/26 10:10:56;;;;;;;3.58;2.40;;;10.30;1.00;;;;;;5056884;28;20285;-81
2023/12/26 10:13:25;;;;;;;2.47;2.28;;;10.40;1.00;;;;;;5058093;28;20228;-80
2023/12/26 10:15:54;;;;;;;3.30;2.60;;;10.40;1.00;;;;;;5066938;28;20248;-81
2023/12/26 10:18:27;;;;;;;2.85;2.38;;;10.50;1.00;;;;;;5067237;28;20220;-80
2023/12/26 10:21:00;;;;;;;6.82;2.40;;;10.50;1.00;;;;;;5072555;28;20722;-80
2023/12/26 10:23:30;;;;;;;3.83;2.28;;;10.50;1.00;;;;;;5068521;28;20213;-78
2023/12/26 10:25:59;;;;;;;3.95;2.60;;;10.50;1.00;;;;;;5067766;28;20838;-79
2023/12/26 10:28:28;;;;;;;3.78;2.25;;;10.50;1.00;;;;;;5099201;28;20274;-79
2023/12/26 10:30:57;;;;;;;2.10;1.90;;;10.40;1.00;;;;;;5062532;28;20235;-78
2023/12/26 10:33:27;;;;;;;2.55;2.08;;;10.50;1.00;;;;;;5101078;28;20227;-80
2023/12/26 10:36:04;;;;;;;3.33;1.83;;;10.50;1.00;;;;;;5069687;28;20220;-80
2023/12/26 10:38:33;;;;;;;2.80;1.92;;;10.50;1.00;;;;;;5070521;28;20224;-80
2023/12/26 10:41:07;;;;;;;2.40;1.88;;;10.40;1.00;;;;;;5066375;28;20242;-80
2023/12/26 10:43:40;;;;;;;2.40;2.13;;;10.40;1.00;;;;;;5066333;28;20249;-78
2023/12/26 10:46:09;;;;;;;4.15;2.13;;;10.40;1.00;;;;;;5063887;28;20826;-79
2023/12/26 10:48:40;;;;;;;2.85;1.98;;;10.50;1.00;;;;;;5067801;28;20610;-79
2023/12/26 10:51:10;;;;;;;2.70;2.00;;;10.50;1.00;;;;;;5065173;28;20258;-80
2023/12/26 10:53:43;;;;;;;2.40;2.08;;;10.50;1.00;;;;;;5063509;28;20225;-80
2023/12/26 10:56:13;;;;;;;3.25;2.60;;;10.60;1.00;;;;;;5068204;28;20220;-80
2023/12/26 10:58:42;;;;;;;3.33;2.70;;;10.60;1.00;;;;;;5066569;28;20216;-80
2023/12/26 11:01:10;;;;;;;4.15;2.28;;;10.70;1.00;;;;;;5059295;28;20357;-80
2023/12/26 11:03:38;;;;;;;3.50;2.40;;;10.60;1.00;;;;;;5063676;28;20225;-80
2023/12/26 11:06:08;;;;;;;3.28;2.53;;;10.60;1.00;;;;;;5053051;28;20219;-79
2023/12/26 11:08:36;;;;;;;4.72;2.67;;;10.70;1.00;;;;;;5059133;28;20251;-79
2023/12/26 11:11:04;;;;;;;3.13;2.55;;;10.60;1.00;;;;;;5068584;28;20213;-78
2023/12/26 11:13:33;;;;;;;3.85;3.03;;;10.70;1.00;;;;;;5065471;28;20232;-79
2023/12/26 11:16:01;;;;;;;4.93;2.78;;;10.70;1.00;;;;;;5067957;28;20222;-79
2023/12/26 11:18:29;;;;;;;6.28;2.72;;;10.70;1.00;;;;;;5066830;28;20232;-80
2023/12/26 11:20:59;;;;;;;2.40;2.20;;;10.70;1.00;;;;;;5061927;28;20228;-80
2023/12/26 11:23:29;;;;;;;2.28;1.92;;;10.70;1.00;;;;;;5067498;28;20231;-80
2023/12/26 11:25:58;;;;;;;2.58;2.28;;;10.70;1.00;;;;;;5065812;28;20363;-80
2023/12/26 11:28:26;;;;;;;2.92;2.00;;;10.70;1.00;;;;;;5064327;28;20224;-80
2023/12/26 11:30:56;;;;;;;2.20;2.00;;;10.60;1.00;;;;;;5069905;28;20332;-80
2023/12/26 11:33:26;;;;;;;4.13;2.35;;;10.60;1.00;;;;;;5065255;28;20224;-79
2023/12/26 11:35:54;;;;;;;3.50;2.42;;;10.60;1.00;;;;;;5067728;28;20251;-80
2023/12/26 11:38:21;;;;;;;2.60;1.70;;;10.50;1.00;;;;;;5065502;28;20246;-80
2023/12/26 11:40:51;;;;;;;2.50;2.00;;;10.40;1.00;;;;;;5063764;28;20317;-80
2023/12/26 11:43:19;;;;;;;2.17;1.77;;;10.50;1.00;;;;;;5066883;28;20247;-81
2023/12/26 11:45:47;;;;;;;2.42;1.80;;;10.50;1.00;;;;;;5068332;28;20208;-80
2023/12/26 11:48:16;;;;;;;2.72;2.10;;;10.50;1.00;;;;;;5060695;28;20247;-80
2023/12/26 11:50:44;;;;;;;3.63;1.98;;;10.60;1.00;;;;;;5060868;28;20248;-78
2023/12/26 11:53:12;;;;;;;3.22;2.25;;;10.60;1.00;;;;;;5071498;28;20240;-79
2023/12/26 11:55:41;;;;;;;2.90;2.50;;;10.60;1.00;;;;;;5063775;28;20219;-80
2023/12/26 11:58:10;;;;;;;3.10;2.20;;;10.60;1.00;;;;;;5062727;28;20216;-79
2023/12/26 12:00:38;;;;;;;3.40;2.20;;;10.50;1.00;;;;;;5066176;28;20238;-79
2023/12/26 12:03:07;;;;;;;3.92;2.15;;;10.60;1.00;;;;;;5067954;28;20226;-80
2023/12/26 12:05:34;;;;;;;6.05;2.00;;;10.50;1.00;;;;;;5077454;28;20289;-79
2023/12/26 12:08:13;;;;;;;2.80;2.10;;;10.50;1.00;;;;;;5067943;28;20721;-79
2023/12/26 12:11:07;;;;;;;3.47;1.85;;;10.60;1.00;;;;;;5065284;28;20282;-79
2023/12/26 12:13:46;;;;;;;3.28;1.90;;;10.50;1.00;;;;;;5072899;28;20224;-80
2023/12/26 12:16:22;;;;;;;3.05;2.08;;;10.60;1.00;;;;;;5064247;28;20374;-80
2023/12/26 12:19:00;;;;;;;4.65;2.00;;;10.50;1.00;;;;;;5068164;28;20223;-80
2023/12/26 12:21:36;;;;;;;3.50;2.00;;;10.50;1.00;;;;;;5068662;28;20306;-79
2023/12/26 12:24:05;;;;;;;3.75;1.88;;;10.50;1.00;;;;;;5087298;28;20227;-79
2023/12/26 12:27:01;;;;;;;2.13;1.67;;;10.50;1.00;;;;;;5064107;28;20329;-79
2023/12/26 12:30:01;;;;;;;2.72;1.63;;;10.40;1.00;;;;;;5060717;28;20307;-80
2023/12/26 12:32:33;;;;;;;2.25;1.73;;;10.40;1.00;;;;;;5062188;28;20220;-80
2023/12/26 12:35:11;;;;;;;3.13;1.83;;;10.40;1.00;;;;;;5061631;28;20224;-78
2023/12/26 12:37:39;;;;;;;2.20;1.60;;;10.50;1.00;;;;;;5063183;28;20226;-80
2023/12/26 12:40:06;;;;;;;2.08;1.83;;;10.40;1.00;;;;;;5067105;28;20236;-80
2023/12/26 12:42:36;;;;;;;2.60;1.90;;;10.50;1.00;;;;;;5066026;28;20310;-81
2023/12/26 12:45:06;;;;;;;2.45;1.73;;;10.40;1.00;;;;;;5062013;28;20225;-80
2023/12/26 12:47:33;;;;;;;2.30;1.80;;;10.40;1.00;;;;;;5069245;28;20234;-79
2023/12/26 12:50:03;;;;;;;3.85;1.90;;;10.50;1.00;;;;;;5065914;28;20292;-80
2023/12/26 12:52:31;;;;;;;2.50;1.70;;;10.40;1.00;;;;;;5068313;28;20255;-80
2023/12/26 12:54:59;;;;;;;2.75;1.70;;;10.40;1.00;;;;;;5065383;28;20553;-80
2023/12/26 12:57:28;;;;;;;2.30;1.65;;;10.40;1.00;;;;;;5067623;28;20240;-80
2023/12/26 12:59:56;;;;;;;3.00;1.85;;;10.40;1.00;;;;;;5082992;28;20292;-80
2023/12/26 13:02:25;;;;;;;2.42;1.67;;;10.40;1.00;;;;;;5060095;28;20232;-80
2023/12/26 13:04:54;;;;;;;3.90;1.95;;;10.30;1.00;;;;;;5057554;28;20375;-79
2023/12/26 13:07:22;;;;;;;3.85;2.40;;;10.30;1.00;;;;;;5061911;28;20311;-80
2023/12/26 13:09:49;;;;;;;3.03;1.80;;;10.30;1.00;;;;;;5077389;28;20228;-78
2023/12/26 13:12:18;;;;;;;3.45;2.00;;;10.20;1.00;;;;;;5061034;28;20229;-79